sensor_id;sensor_type;location;lat;lon;timestamp;temperature;humidity
8332;DHT22;4203;48.144;14.118;2023-03-23T00:01:19;6.30;99.90
8332;DHT22;4203;48.144;14.118;2023-03-23T00:03:49;6.30;99.90
8332;DHT22;4203;48.144;14.118;2023-03-23T00:06:16;6.30;99.90
8332;DHT22;4203;48.144;14.118;2023-03-23T00:08:46;6.30;99.90
8332;DHT22;4203;48.144;14.118;2023-03-23T00:11:16;6.30;99.90
8332;DHT22;4203;48.144;14.118;2023-03-23T00:13:44;6.20;99.90
8332;DHT22;4203;48.144;14.118;2023-03-23T00:16:13;6.20;99.90
8332;DHT22;4203;48.144;14.118;2023-03-23T00:18:46;6.20;99.90
8332;DHT22;4203;48.144;14.118;2023-03-23T00:21:15;6.20;99.90
8332;DHT22;4203;48.144;14.118;2023-03-23T00:23:43;6.20;99.90
8332;DHT22;4203;48.144;14.118;2023-03-23T00:26:11;6.20;99.90
8332;DHT22;4203;48.144;14.118;2023-03-23T00:28:40;6.20;99.90
8332;DHT22;4203;48.144;14.118;2023-03-23T00:31:09;6.20;99.90
8332;DHT22;4203;48.144;14.118;2023-03-23T00:33:37;6.10;99.90
8332;DHT22;4203;48.144;14.118;2023-03-23T00:36:08;6.10;99.90
8332;DHT22;4203;48.144;14.118;2023-03-23T00:38:36;6.10;99.90
8332;DHT22;4203;48.144;14.118;2023-03-23T00:41:04;6.10;99.90
8332;DHT22;4203;48.144;14.118;2023-03-23T00:43:33;6.00;99.90
8332;DHT22;4203;48.144;14.118;2023-03-23T00:46:03;6.00;99.90
8332;DHT22;4203;48.144;14.118;2023-03-23T00:48:34;5.90;99.90
8332;DHT22;4203;48.144;14.118;2023-03-23T00:51:03;5.90;99.90
8332;DHT22;4203;48.144;14.118;2023-03-23T00:53:32;5.80;99.90
8332;DHT22;4203;48.144;14.118;2023-03-23T00:55:59;5.90;99.90
8332;DHT22;4203;48.144;14.118;2023-03-23T00:58:26;5.90;99.90
8332;DHT22;4203;48.144;14.118;2023-03-23T01:00:53;5.90;99.90
8332;DHT22;4203;48.144;14.118;2023-03-23T01:03:23;5.80;99.90
8332;DHT22;4203;48.144;14.118;2023-03-23T01:05:52;5.60;99.90
8332;DHT22;4203;48.144;14.118;2023-03-23T01:08:21;5.70;99.90
8332;DHT22;4203;48.144;14.118;2023-03-23T01:10:49;5.70;99.90
8332;DHT22;4203;48.144;14.118;2023-03-23T01:13:17;5.60;99.90
8332;DHT22;4203;48.144;14.118;2023-03-23T01:15:46;5.60;99.90
8332;DHT22;4203;48.144;14.118;2023-03-23T01:18:13;5.60;99.90
8332;DHT22;4203;48.144;14.118;2023-03-23T01:20:42;5.70;99.90
8332;DHT22;4203;48.144;14.118;2023-03-23T01:23:09;5.70;99.90
8332;DHT22;4203;48.144;14.118;2023-03-23T01:25:36;5.70;99.90
8332;DHT22;4203;48.144;14.118;2023-03-23T01:28:04;5.50;99.90
8332;DHT22;4203;48.144;14.118;2023-03-23T01:30:31;5.40;99.90
8332;DHT22;4203;48.144;14.118;2023-03-23T01:32:58;5.50;99.90
8332;DHT22;4203;48.144;14.118;2023-03-23T01:35:25;5.50;99.90
8332;DHT22;4203;48.144;14.118;2023-03-23T01:37:54;5.50;99.90
8332;DHT22;4203;48.144;14.118;2023-03-23T01:40:22;5.50;99.90
8332;DHT22;4203;48.144;14.118;2023-03-23T01:42:49;5.40;99.90
8332;DHT22;4203;48.144;14.118;2023-03-23T01:45:31;5.40;99.90
8332;DHT22;4203;48.144;14.118;2023-03-23T01:48:05;5.40;99.90
8332;DHT22;4203;48.144;14.118;2023-03-23T01:50:38;5.40;99.90
8332;DHT22;4203;48.144;14.118;2023-03-23T01:53:09;5.30;99.90
8332;DHT22;4203;48.144;14.118;2023-03-23T01:55:39;5.20;99.90
8332;DHT22;4203;48.144;14.118;2023-03-23T01:58:08;5.30;99.90
8332;DHT22;4203;48.144;14.118;2023-03-23T02:00:36;5.20;99.90
8332;DHT22;4203;48.144;14.118;2023-03-23T02:03:08;5.20;99.90
8332;DHT22;4203;48.144;14.118;2023-03-23T02:05:40;5.20;99.90
8332;DHT22;4203;48.144;14.118;2023-03-23T02:08:11;5.10;99.90
8332;DHT22;4203;48.144;14.118;2023-03-23T02:10:40;5.10;99.90
8332;DHT22;4203;48.144;14.118;2023-03-23T02:13:09;5.20;99.90
8332;DHT22;4203;48.144;14.118;2023-03-23T02:15:56;5.20;99.90
8332;DHT22;4203;48.144;14.118;2023-03-23T02:18:44;5.20;99.90
8332;DHT22;4203;48.144;14.118;2023-03-23T02:24:55;5.50;99.90
8332;DHT22;4203;48.144;14.118;2023-03-23T02:27:40;5.60;99.90
8332;DHT22;4203;48.144;14.118;2023-03-23T02:33:35;5.60;99.90
8332;DHT22;4203;48.144;14.118;2023-03-23T02:36:09;5.50;99.90
8332;DHT22;4203;48.144;14.118;2023-03-23T02:38:42;5.40;99.90
8332;DHT22;4203;48.144;14.118;2023-03-23T02:41:19;5.30;99.90
8332;DHT22;4203;48.144;14.118;2023-03-23T02:43:49;5.30;99.90
8332;DHT22;4203;48.144;14.118;2023-03-23T02:46:17;5.20;99.90
8332;DHT22;4203;48.144;14.118;2023-03-23T02:48:50;5.00;99.90
8332;DHT22;4203;48.144;14.118;2023-03-23T02:51:19;5.00;99.90
8332;DHT22;4203;48.144;14.118;2023-03-23T02:53:49;4.90;99.90
8332;DHT22;4203;48.144;14.118;2023-03-23T02:56:19;4.80;99.90
8332;DHT22;4203;48.144;14.118;2023-03-23T02:58:47;4.70;99.90
8332;DHT22;4203;48.144;14.118;2023-03-23T03:01:46;4.70;99.90
8332;DHT22;4203;48.144;14.118;2023-03-23T03:04:19;4.70;99.90
8332;DHT22;4203;48.144;14.118;2023-03-23T03:06:58;4.70;99.90
8332;DHT22;4203;48.144;14.118;2023-03-23T03:09:36;4.70;99.90
8332;DHT22;4203;48.144;14.118;2023-03-23T03:12:12;4.70;99.90
8332;DHT22;4203;48.144;14.118;2023-03-23T03:14:44;4.70;99.90
8332;DHT22;4203;48.144;14.118;2023-03-23T03:17:19;4.70;99.90
8332;DHT22;4203;48.144;14.118;2023-03-23T03:19:50;4.70;99.90
8332;DHT22;4203;48.144;14.118;2023-03-23T03:22:20;4.60;99.90
8332;DHT22;4203;48.144;14.118;2023-03-23T03:24:48;4.60;99.90
8332;DHT22;4203;48.144;14.118;2023-03-23T03:27:18;4.60;99.90
8332;DHT22;4203;48.144;14.118;2023-03-23T03:29:53;4.60;99.90
8332;DHT22;4203;48.144;14.118;2023-03-23T03:32:22;4.70;99.90
8332;DHT22;4203;48.144;14.118;2023-03-23T03:34:53;4.60;99.90
8332;DHT22;4203;48.144;14.118;2023-03-23T03:37:20;4.60;99.90
8332;DHT22;4203;48.144;14.118;2023-03-23T03:39:47;4.60;99.90
8332;DHT22;4203;48.144;14.118;2023-03-23T03:42:16;4.60;99.90
8332;DHT22;4203;48.144;14.118;2023-03-23T03:44:43;4.60;99.90
8332;DHT22;4203;48.144;14.118;2023-03-23T03:47:11;4.70;99.90
8332;DHT22;4203;48.144;14.118;2023-03-23T03:49:38;4.70;99.90
8332;DHT22;4203;48.144;14.118;2023-03-23T03:52:07;4.70;99.90
8332;DHT22;4203;48.144;14.118;2023-03-23T03:54:35;4.70;99.90
8332;DHT22;4203;48.144;14.118;2023-03-23T03:57:03;4.60;99.90
8332;DHT22;4203;48.144;14.118;2023-03-23T03:59:30;4.60;99.90
8332;DHT22;4203;48.144;14.118;2023-03-23T04:01:58;4.60;99.90
8332;DHT22;4203;48.144;14.118;2023-03-23T04:04:25;4.60;99.90
8332;DHT22;4203;48.144;14.118;2023-03-23T04:06:52;4.60;99.90
8332;DHT22;4203;48.144;14.118;2023-03-23T04:09:21;4.50;99.90
8332;DHT22;4203;48.144;14.118;2023-03-23T04:11:48;4.60;99.90
8332;DHT22;4203;48.144;14.118;2023-03-23T04:14:15;4.50;99.90
8332;DHT22;4203;48.144;14.118;2023-03-23T04:16:42;4.50;99.90
8332;DHT22;4203;48.144;14.118;2023-03-23T04:19:09;4.50;99.90
8332;DHT22;4203;48.144;14.118;2023-03-23T04:21:38;4.50;99.90
8332;DHT22;4203;48.144;14.118;2023-03-23T04:24:06;4.50;99.90
8332;DHT22;4203;48.144;14.118;2023-03-23T04:26:35;4.50;99.90
8332;DHT22;4203;48.144;14.118;2023-03-23T04:29:02;4.40;99.90
8332;DHT22;4203;48.144;14.118;2023-03-23T04:31:31;4.40;99.90
8332;DHT22;4203;48.144;14.118;2023-03-23T04:34:00;4.50;99.90
8332;DHT22;4203;48.144;14.118;2023-03-23T04:36:27;4.50;99.90
8332;DHT22;4203;48.144;14.118;2023-03-23T04:38:55;4.40;99.90
8332;DHT22;4203;48.144;14.118;2023-03-23T04:41:23;4.40;99.90
8332;DHT22;4203;48.144;14.118;2023-03-23T04:43:52;4.40;99.90
8332;DHT22;4203;48.144;14.118;2023-03-23T04:46:22;4.40;99.90
8332;DHT22;4203;48.144;14.118;2023-03-23T04:48:49;4.30;99.90
8332;DHT22;4203;48.144;14.118;2023-03-23T04:51:16;4.30;99.90
8332;DHT22;4203;48.144;14.118;2023-03-23T04:53:44;4.30;99.90
8332;DHT22;4203;48.144;14.118;2023-03-23T04:56:11;4.30;99.90
8332;DHT22;4203;48.144;14.118;2023-03-23T04:58:39;4.30;99.90
8332;DHT22;4203;48.144;14.118;2023-03-23T05:01:08;4.40;99.90
8332;DHT22;4203;48.144;14.118;2023-03-23T05:03:35;4.30;99.90
8332;DHT22;4203;48.144;14.118;2023-03-23T05:06:02;4.40;99.90
8332;DHT22;4203;48.144;14.118;2023-03-23T05:08:30;4.50;99.90
8332;DHT22;4203;48.144;14.118;2023-03-23T05:10:59;4.50;99.90
8332;DHT22;4203;48.144;14.118;2023-03-23T05:13:27;4.50;99.90
8332;DHT22;4203;48.144;14.118;2023-03-23T05:15:55;4.50;99.90
8332;DHT22;4203;48.144;14.118;2023-03-23T05:18:23;4.50;99.90
8332;DHT22;4203;48.144;14.118;2023-03-23T05:20:51;4.50;99.90
8332;DHT22;4203;48.144;14.118;2023-03-23T05:23:19;4.50;99.90
8332;DHT22;4203;48.144;14.118;2023-03-23T05:25:53;4.50;99.90
8332;DHT22;4203;48.144;14.118;2023-03-23T05:28:20;4.50;99.90
8332;DHT22;4203;48.144;14.118;2023-03-23T05:30:49;4.50;99.90
8332;DHT22;4203;48.144;14.118;2023-03-23T05:33:16;4.50;99.90
8332;DHT22;4203;48.144;14.118;2023-03-23T05:35:45;4.50;99.90
8332;DHT22;4203;48.144;14.118;2023-03-23T05:38:12;4.50;99.90
8332;DHT22;4203;48.144;14.118;2023-03-23T05:40:40;4.60;99.90
8332;DHT22;4203;48.144;14.118;2023-03-23T05:43:08;4.60;99.90
8332;DHT22;4203;48.144;14.118;2023-03-23T05:45:35;4.70;99.90
8332;DHT22;4203;48.144;14.118;2023-03-23T05:48:03;4.70;99.90
8332;DHT22;4203;48.144;14.118;2023-03-23T05:50:30;4.70;99.90
8332;DHT22;4203;48.144;14.118;2023-03-23T05:52:58;4.80;99.90
8332;DHT22;4203;48.144;14.118;2023-03-23T05:55:26;4.90;99.90
8332;DHT22;4203;48.144;14.118;2023-03-23T05:57:53;5.00;99.90
8332;DHT22;4203;48.144;14.118;2023-03-23T06:00:21;5.10;99.90
8332;DHT22;4203;48.144;14.118;2023-03-23T06:02:49;5.20;99.90
8332;DHT22;4203;48.144;14.118;2023-03-23T06:05:16;5.20;99.90
8332;DHT22;4203;48.144;14.118;2023-03-23T06:07:45;5.30;99.90
8332;DHT22;4203;48.144;14.118;2023-03-23T06:10:13;5.30;99.90
8332;DHT22;4203;48.144;14.118;2023-03-23T06:12:41;5.40;99.90
8332;DHT22;4203;48.144;14.118;2023-03-23T06:15:09;5.50;99.90
8332;DHT22;4203;48.144;14.118;2023-03-23T06:17:37;5.60;99.90
8332;DHT22;4203;48.144;14.118;2023-03-23T06:20:05;5.70;99.90
8332;DHT22;4203;48.144;14.118;2023-03-23T06:22:36;5.90;99.90
8332;DHT22;4203;48.144;14.118;2023-03-23T06:25:05;6.00;99.90
8332;DHT22;4203;48.144;14.118;2023-03-23T06:27:34;6.10;99.90
8332;DHT22;4203;48.144;14.118;2023-03-23T06:30:02;6.10;99.90
8332;DHT22;4203;48.144;14.118;2023-03-23T06:32:30;6.10;99.90
8332;DHT22;4203;48.144;14.118;2023-03-23T06:34:58;6.20;99.90
8332;DHT22;4203;48.144;14.118;2023-03-23T06:37:26;6.20;99.90
8332;DHT22;4203;48.144;14.118;2023-03-23T06:39:53;6.20;99.90
8332;DHT22;4203;48.144;14.118;2023-03-23T06:42:22;6.30;99.90
8332;DHT22;4203;48.144;14.118;2023-03-23T06:44:52;6.30;99.90
8332;DHT22;4203;48.144;14.118;2023-03-23T06:47:22;6.40;99.90
8332;DHT22;4203;48.144;14.118;2023-03-23T06:49:49;6.60;99.90
8332;DHT22;4203;48.144;14.118;2023-03-23T06:52:17;6.70;99.90
8332;DHT22;4203;48.144;14.118;2023-03-23T06:54:44;6.80;99.90
8332;DHT22;4203;48.144;14.118;2023-03-23T06:57:11;6.90;99.90
8332;DHT22;4203;48.144;14.118;2023-03-23T06:59:38;7.00;99.90
8332;DHT22;4203;48.144;14.118;2023-03-23T07:02:09;7.00;99.90
8332;DHT22;4203;48.144;14.118;2023-03-23T07:04:37;7.00;99.90
8332;DHT22;4203;48.144;14.118;2023-03-23T07:07:05;7.20;99.90
8332;DHT22;4203;48.144;14.118;2023-03-23T07:09:32;7.30;99.90
8332;DHT22;4203;48.144;14.118;2023-03-23T07:11:59;7.40;99.90
8332;DHT22;4203;48.144;14.118;2023-03-23T07:14:26;7.50;99.90
8332;DHT22;4203;48.144;14.118;2023-03-23T07:16:53;7.70;99.90
8332;DHT22;4203;48.144;14.118;2023-03-23T07:19:23;7.90;99.90
8332;DHT22;4203;48.144;14.118;2023-03-23T07:21:50;8.20;99.90
8332;DHT22;4203;48.144;14.118;2023-03-23T07:24:17;8.50;99.90
8332;DHT22;4203;48.144;14.118;2023-03-23T07:26:45;8.80;99.90
8332;DHT22;4203;48.144;14.118;2023-03-23T07:29:12;9.10;99.90
8332;DHT22;4203;48.144;14.118;2023-03-23T07:31:39;9.30;99.90
8332;DHT22;4203;48.144;14.118;2023-03-23T07:34:06;9.70;99.90
8332;DHT22;4203;48.144;14.118;2023-03-23T07:36:35;10.00;99.90
8332;DHT22;4203;48.144;14.118;2023-03-23T07:39:03;10.30;99.90
8332;DHT22;4203;48.144;14.118;2023-03-23T07:41:32;10.70;99.90
8332;DHT22;4203;48.144;14.118;2023-03-23T07:43:59;11.00;99.90
8332;DHT22;4203;48.144;14.118;2023-03-23T07:46:27;11.40;99.90
8332;DHT22;4203;48.144;14.118;2023-03-23T07:48:54;11.80;99.90
8332;DHT22;4203;48.144;14.118;2023-03-23T07:51:22;12.30;99.90
8332;DHT22;4203;48.144;14.118;2023-03-23T07:53:51;12.70;99.90
8332;DHT22;4203;48.144;14.118;2023-03-23T07:56:18;13.10;99.90
8332;DHT22;4203;48.144;14.118;2023-03-23T07:58:46;13.40;99.90
8332;DHT22;4203;48.144;14.118;2023-03-23T08:01:14;13.80;99.90
8332;DHT22;4203;48.144;14.118;2023-03-23T08:03:41;14.00;99.90
8332;DHT22;4203;48.144;14.118;2023-03-23T08:06:08;13.90;99.90
8332;DHT22;4203;48.144;14.118;2023-03-23T08:08:36;13.60;99.90
8332;DHT22;4203;48.144;14.118;2023-03-23T08:11:07;13.80;99.90
8332;DHT22;4203;48.144;14.118;2023-03-23T08:13:34;13.80;99.90
8332;DHT22;4203;48.144;14.118;2023-03-23T08:16:02;13.70;99.90
8332;DHT22;4203;48.144;14.118;2023-03-23T08:18:30;13.60;99.90
8332;DHT22;4203;48.144;14.118;2023-03-23T08:20:57;13.70;99.90
8332;DHT22;4203;48.144;14.118;2023-03-23T08:23:25;14.20;99.90
8332;DHT22;4203;48.144;14.118;2023-03-23T08:25:52;14.80;99.90
8332;DHT22;4203;48.144;14.118;2023-03-23T08:28:20;15.40;99.90
8332;DHT22;4203;48.144;14.118;2023-03-23T08:30:48;16.10;99.90
8332;DHT22;4203;48.144;14.118;2023-03-23T08:33:15;16.50;99.90
8332;DHT22;4203;48.144;14.118;2023-03-23T08:35:43;16.80;99.90
8332;DHT22;4203;48.144;14.118;2023-03-23T08:38:10;17.10;99.90
8332;DHT22;4203;48.144;14.118;2023-03-23T08:40:38;17.40;99.90
8332;DHT22;4203;48.144;14.118;2023-03-23T08:43:05;17.80;99.90
8332;DHT22;4203;48.144;14.118;2023-03-23T08:45:34;18.30;99.90
8332;DHT22;4203;48.144;14.118;2023-03-23T08:48:02;18.40;99.90
8332;DHT22;4203;48.144;14.118;2023-03-23T08:50:29;18.20;99.90
8332;DHT22;4203;48.144;14.118;2023-03-23T08:52:57;18.30;99.90
8332;DHT22;4203;48.144;14.118;2023-03-23T08:55:25;18.50;99.90
8332;DHT22;4203;48.144;14.118;2023-03-23T08:57:52;18.50;99.90
8332;DHT22;4203;48.144;14.118;2023-03-23T09:00:21;18.60;99.90
8332;DHT22;4203;48.144;14.118;2023-03-23T09:02:52;18.70;99.90
8332;DHT22;4203;48.144;14.118;2023-03-23T09:05:22;18.90;99.90
8332;DHT22;4203;48.144;14.118;2023-03-23T09:07:52;19.10;99.90
8332;DHT22;4203;48.144;14.118;2023-03-23T09:10:20;19.30;99.90
8332;DHT22;4203;48.144;14.118;2023-03-23T09:12:48;19.00;99.90
8332;DHT22;4203;48.144;14.118;2023-03-23T09:15:17;19.00;99.90
8332;DHT22;4203;48.144;14.118;2023-03-23T09:17:46;19.10;99.90
8332;DHT22;4203;48.144;14.118;2023-03-23T09:20:17;19.10;99.90
8332;DHT22;4203;48.144;14.118;2023-03-23T09:22:47;19.20;99.90
8332;DHT22;4203;48.144;14.118;2023-03-23T09:25:18;19.30;99.90
8332;DHT22;4203;48.144;14.118;2023-03-23T09:27:48;19.30;99.90
8332;DHT22;4203;48.144;14.118;2023-03-23T09:30:19;19.30;99.90
8332;DHT22;4203;48.144;14.118;2023-03-23T09:32:47;19.30;99.90
8332;DHT22;4203;48.144;14.118;2023-03-23T09:35:16;19.20;99.90
8332;DHT22;4203;48.144;14.118;2023-03-23T09:37:47;19.20;99.90
8332;DHT22;4203;48.144;14.118;2023-03-23T09:40:17;18.90;99.90
8332;DHT22;4203;48.144;14.118;2023-03-23T09:43:20;18.40;99.90
8332;DHT22;4203;48.144;14.118;2023-03-23T09:45:55;18.10;99.90
8332;DHT22;4203;48.144;14.118;2023-03-23T09:48:40;18.10;99.90
8332;DHT22;4203;48.144;14.118;2023-03-23T09:51:19;18.20;99.90
8332;DHT22;4203;48.144;14.118;2023-03-23T09:53:52;18.20;99.90
8332;DHT22;4203;48.144;14.118;2023-03-23T09:56:20;18.10;99.90
8332;DHT22;4203;48.144;14.118;2023-03-23T09:58:58;18.10;99.90
8332;DHT22;4203;48.144;14.118;2023-03-23T10:01:31;18.00;99.90
8332;DHT22;4203;48.144;14.118;2023-03-23T10:04:03;17.70;99.90
8332;DHT22;4203;48.144;14.118;2023-03-23T10:06:33;17.40;99.90
8332;DHT22;4203;48.144;14.118;2023-03-23T10:09:04;17.30;99.90
8332;DHT22;4203;48.144;14.118;2023-03-23T10:11:39;17.20;99.90
8332;DHT22;4203;48.144;14.118;2023-03-23T10:14:19;17.10;99.90
8332;DHT22;4203;48.144;14.118;2023-03-23T10:16:54;17.20;99.90
8332;DHT22;4203;48.144;14.118;2023-03-23T10:19:29;17.30;99.90
8332;DHT22;4203;48.144;14.118;2023-03-23T10:22:03;17.60;99.90
8332;DHT22;4203;48.144;14.118;2023-03-23T10:24:35;18.10;99.90
8332;DHT22;4203;48.144;14.118;2023-03-23T10:27:13;18.30;99.90
8332;DHT22;4203;48.144;14.118;2023-03-23T10:29:48;19.20;99.90
8332;DHT22;4203;48.144;14.118;2023-03-23T10:32:22;19.30;99.90
8332;DHT22;4203;48.144;14.118;2023-03-23T10:34:53;19.50;99.90
8332;DHT22;4203;48.144;14.118;2023-03-23T10:37:26;19.80;99.90
8332;DHT22;4203;48.144;14.118;2023-03-23T10:39:57;19.60;99.90
8332;DHT22;4203;48.144;14.118;2023-03-23T10:42:26;19.70;99.90
8332;DHT22;4203;48.144;14.118;2023-03-23T10:44:55;19.60;99.90
8332;DHT22;4203;48.144;14.118;2023-03-23T10:47:23;19.60;99.90
8332;DHT22;4203;48.144;14.118;2023-03-23T10:49:53;19.90;99.90
8332;DHT22;4203;48.144;14.118;2023-03-23T10:52:30;20.20;99.90
8332;DHT22;4203;48.144;14.118;2023-03-23T10:55:04;20.80;99.90
8332;DHT22;4203;48.144;14.118;2023-03-23T10:57:33;21.40;99.90
8332;DHT22;4203;48.144;14.118;2023-03-23T11:00:04;22.20;99.90
8332;DHT22;4203;48.144;14.118;2023-03-23T11:02:39;22.20;99.90
8332;DHT22;4203;48.144;14.118;2023-03-23T11:05:16;22.00;98.70
8332;DHT22;4203;48.144;14.118;2023-03-23T11:07:51;22.00;97.30
8332;DHT22;4203;48.144;14.118;2023-03-23T11:10:22;22.30;96.30
8332;DHT22;4203;48.144;14.118;2023-03-23T11:12:52;22.40;98.70
8332;DHT22;4203;48.144;14.118;2023-03-23T11:15:27;22.90;96.90
8332;DHT22;4203;48.144;14.118;2023-03-23T11:17:57;23.10;97.10
8332;DHT22;4203;48.144;14.118;2023-03-23T11:20:25;22.90;96.60
8332;DHT22;4203;48.144;14.118;2023-03-23T11:22:55;23.80;97.20
8332;DHT22;4203;48.144;14.118;2023-03-23T11:25:23;24.50;93.20
8332;DHT22;4203;48.144;14.118;2023-03-23T11:27:52;24.00;92.20
8332;DHT22;4203;48.144;14.118;2023-03-23T11:30:23;24.10;94.60
8332;DHT22;4203;48.144;14.118;2023-03-23T11:32:54;24.10;93.50
8332;DHT22;4203;48.144;14.118;2023-03-23T11:35:25;24.30;94.60
8332;DHT22;4203;48.144;14.118;2023-03-23T11:37:56;24.70;94.50
8332;DHT22;4203;48.144;14.118;2023-03-23T11:40:25;26.10;92.90
8332;DHT22;4203;48.144;14.118;2023-03-23T11:43:01;26.00;88.40
8332;DHT22;4203;48.144;14.118;2023-03-23T11:45:36;25.70;88.60
8332;DHT22;4203;48.144;14.118;2023-03-23T11:48:18;24.90;89.10
8332;DHT22;4203;48.144;14.118;2023-03-23T11:50:52;24.40;90.40
8332;DHT22;4203;48.144;14.118;2023-03-23T11:53:37;24.60;88.50
8332;DHT22;4203;48.144;14.118;2023-03-23T11:56:13;25.40;92.90
8332;DHT22;4203;48.144;14.118;2023-03-23T11:58:42;26.20;90.80
8332;DHT22;4203;48.144;14.118;2023-03-23T12:01:16;27.10;84.60
8332;DHT22;4203;48.144;14.118;2023-03-23T12:04:00;27.30;90.60
8332;DHT22;4203;48.144;14.118;2023-03-23T12:06:35;27.70;89.10
8332;DHT22;4203;48.144;14.118;2023-03-23T12:09:21;28.40;90.70
8332;DHT22;4203;48.144;14.118;2023-03-23T12:11:58;28.50;86.00
8332;DHT22;4203;48.144;14.118;2023-03-23T12:14:33;29.00;85.10
8332;DHT22;4203;48.144;14.118;2023-03-23T12:17:16;29.40;85.60
8332;DHT22;4203;48.144;14.118;2023-03-23T12:19:53;29.60;79.80
8332;DHT22;4203;48.144;14.118;2023-03-23T12:22:37;29.40;77.20
8332;DHT22;4203;48.144;14.118;2023-03-23T12:25:31;28.80;73.40
8332;DHT22;4203;48.144;14.118;2023-03-23T12:28:05;28.10;79.00
8332;DHT22;4203;48.144;14.118;2023-03-23T12:30:38;28.50;85.30
8332;DHT22;4203;48.144;14.118;2023-03-23T12:33:17;29.30;85.40
8332;DHT22;4203;48.144;14.118;2023-03-23T12:35:55;30.10;81.20
8332;DHT22;4203;48.144;14.118;2023-03-23T12:38:49;30.00;80.10
8332;DHT22;4203;48.144;14.118;2023-03-23T12:41:23;29.90;77.00
8332;DHT22;4203;48.144;14.118;2023-03-23T12:43:57;29.00;71.40
8332;DHT22;4203;48.144;14.118;2023-03-23T12:46:44;28.50;72.80
8332;DHT22;4203;48.144;14.118;2023-03-23T12:49:17;28.40;74.90
8332;DHT22;4203;48.144;14.118;2023-03-23T12:51:51;28.10;69.20
8332;DHT22;4203;48.144;14.118;2023-03-23T12:54:24;27.90;73.50
8332;DHT22;4203;48.144;14.118;2023-03-23T12:57:00;27.70;69.40
8332;DHT22;4203;48.144;14.118;2023-03-23T12:59:35;27.20;76.00
8332;DHT22;4203;48.144;14.118;2023-03-23T13:02:10;27.20;78.40
8332;DHT22;4203;48.144;14.118;2023-03-23T13:04:43;27.50;75.60
8332;DHT22;4203;48.144;14.118;2023-03-23T13:07:16;27.90;73.90
8332;DHT22;4203;48.144;14.118;2023-03-23T13:09:50;28.30;77.70
8332;DHT22;4203;48.144;14.118;2023-03-23T13:12:21;28.20;71.80
8332;DHT22;4203;48.144;14.118;2023-03-23T13:14:56;27.20;71.50
8332;DHT22;4203;48.144;14.118;2023-03-23T13:17:34;27.70;72.80
8332;DHT22;4203;48.144;14.118;2023-03-23T13:20:30;28.40;75.70
8332;DHT22;4203;48.144;14.118;2023-03-23T13:23:04;28.80;74.80
8332;DHT22;4203;48.144;14.118;2023-03-23T13:25:54;28.20;68.30
8332;DHT22;4203;48.144;14.118;2023-03-23T13:28:26;26.50;72.90
8332;DHT22;4203;48.144;14.118;2023-03-23T13:30:59;26.30;78.60
8332;DHT22;4203;48.144;14.118;2023-03-23T13:33:30;26.70;80.20
8332;DHT22;4203;48.144;14.118;2023-03-23T13:36:04;27.20;75.70
8332;DHT22;4203;48.144;14.118;2023-03-23T13:38:33;26.90;75.60
8332;DHT22;4203;48.144;14.118;2023-03-23T13:41:07;26.80;71.60
8332;DHT22;4203;48.144;14.118;2023-03-23T13:43:39;26.30;72.00
8332;DHT22;4203;48.144;14.118;2023-03-23T13:46:26;25.20;76.90
8332;DHT22;4203;48.144;14.118;2023-03-23T13:49:14;25.30;80.50
8332;DHT22;4203;48.144;14.118;2023-03-23T13:51:59;25.60;78.40
8332;DHT22;4203;48.144;14.118;2023-03-23T13:54:31;25.50;79.50
8332;DHT22;4203;48.144;14.118;2023-03-23T13:57:00;25.30;78.70
8332;DHT22;4203;48.144;14.118;2023-03-23T13:59:33;25.10;78.80
8332;DHT22;4203;48.144;14.118;2023-03-23T14:02:30;25.10;81.50
8332;DHT22;4203;48.144;14.118;2023-03-23T14:05:23;24.90;80.40
8332;DHT22;4203;48.144;14.118;2023-03-23T14:07:54;24.80;80.50
8332;DHT22;4203;48.144;14.118;2023-03-23T14:10:30;24.60;80.30
8332;DHT22;4203;48.144;14.118;2023-03-23T14:12:59;24.40;79.10
8332;DHT22;4203;48.144;14.118;2023-03-23T14:15:30;24.10;80.70
8332;DHT22;4203;48.144;14.118;2023-03-23T14:18:02;23.90;77.20
8332;DHT22;4203;48.144;14.118;2023-03-23T14:20:31;23.80;82.80
8332;DHT22;4203;48.144;14.118;2023-03-23T14:23:00;23.80;77.40
8332;DHT22;4203;48.144;14.118;2023-03-23T14:25:29;23.90;79.10
8332;DHT22;4203;48.144;14.118;2023-03-23T14:27:57;23.90;78.60
8332;DHT22;4203;48.144;14.118;2023-03-23T14:30:26;23.70;78.50
8332;DHT22;4203;48.144;14.118;2023-03-23T14:33:04;23.50;76.30
8332;DHT22;4203;48.144;14.118;2023-03-23T14:35:35;23.30;78.30
8332;DHT22;4203;48.144;14.118;2023-03-23T14:38:04;23.10;77.30
8332;DHT22;4203;48.144;14.118;2023-03-23T14:40:34;22.90;81.00
8332;DHT22;4203;48.144;14.118;2023-03-23T14:43:01;22.90;82.00
8332;DHT22;4203;48.144;14.118;2023-03-23T14:45:31;22.80;82.60
8332;DHT22;4203;48.144;14.118;2023-03-23T14:48:02;22.90;83.20
8332;DHT22;4203;48.144;14.118;2023-03-23T14:50:35;23.00;83.10
8332;DHT22;4203;48.144;14.118;2023-03-23T14:53:11;22.90;81.40
8332;DHT22;4203;48.144;14.118;2023-03-23T14:55:42;22.90;82.00
8332;DHT22;4203;48.144;14.118;2023-03-23T14:58:13;22.80;84.90
8332;DHT22;4203;48.144;14.118;2023-03-23T15:00:43;22.70;82.30
8332;DHT22;4203;48.144;14.118;2023-03-23T15:03:14;22.60;81.20
8332;DHT22;4203;48.144;14.118;2023-03-23T15:05:45;22.50;82.30
8332;DHT22;4203;48.144;14.118;2023-03-23T15:08:20;22.40;85.60
8332;DHT22;4203;48.144;14.118;2023-03-23T15:10:58;22.40;83.90
8332;DHT22;4203;48.144;14.118;2023-03-23T15:13:26;22.30;82.40
8332;DHT22;4203;48.144;14.118;2023-03-23T15:16:02;22.20;82.80
8332;DHT22;4203;48.144;14.118;2023-03-23T15:18:34;22.10;85.80
8332;DHT22;4203;48.144;14.118;2023-03-23T15:21:18;21.90;84.90
8332;DHT22;4203;48.144;14.118;2023-03-23T15:23:46;21.70;88.40
8332;DHT22;4203;48.144;14.118;2023-03-23T15:26:32;21.50;85.60
8332;DHT22;4203;48.144;14.118;2023-03-23T15:29:11;21.40;87.50
8332;DHT22;4203;48.144;14.118;2023-03-23T15:31:40;21.20;87.50
8332;DHT22;4203;48.144;14.118;2023-03-23T15:34:19;21.10;87.90
8332;DHT22;4203;48.144;14.118;2023-03-23T15:36:53;20.90;90.40
8332;DHT22;4203;48.144;14.118;2023-03-23T15:39:21;20.80;90.80
8332;DHT22;4203;48.144;14.118;2023-03-23T15:41:50;20.70;91.40
8332;DHT22;4203;48.144;14.118;2023-03-23T15:44:26;20.70;92.50
8332;DHT22;4203;48.144;14.118;2023-03-23T15:47:14;20.60;91.70
8332;DHT22;4203;48.144;14.118;2023-03-23T15:49:46;20.50;91.70
8332;DHT22;4203;48.144;14.118;2023-03-23T15:52:15;20.30;91.70
8332;DHT22;4203;48.144;14.118;2023-03-23T15:54:48;20.30;92.20
8332;DHT22;4203;48.144;14.118;2023-03-23T15:57:15;20.30;91.00
8332;DHT22;4203;48.144;14.118;2023-03-23T15:59:43;20.20;91.30
8332;DHT22;4203;48.144;14.118;2023-03-23T16:02:18;20.20;92.70
8332;DHT22;4203;48.144;14.118;2023-03-23T16:04:48;20.10;91.80
8332;DHT22;4203;48.144;14.118;2023-03-23T16:07:16;20.00;91.90
8332;DHT22;4203;48.144;14.118;2023-03-23T16:09:45;19.80;93.80
8332;DHT22;4203;48.144;14.118;2023-03-23T16:12:12;19.60;94.20
8332;DHT22;4203;48.144;14.118;2023-03-23T16:14:40;19.30;94.00
8332;DHT22;4203;48.144;14.118;2023-03-23T16:17:11;19.10;94.90
8332;DHT22;4203;48.144;14.118;2023-03-23T16:19:40;19.00;96.00
8332;DHT22;4203;48.144;14.118;2023-03-23T16:22:09;18.90;97.60
8332;DHT22;4203;48.144;14.118;2023-03-23T16:24:36;18.80;99.10